Skip Navigation LinksHome page > Weather > Current weather Skip Navigation Links

Current Weather

Marthas Vineyard, Vineyard Haven, Mass.

For information only: do not use for flight planning or navigation.
Latest weather
Observation time Friday, February 21, 2020 3:53 AM EST
Local time Friday, February 21, 2020 4:50 AM EST
Flight conditions Visual Meteorological Conditions
Winds
Wind direction North (350°)
Wind speed 15 mph
Wind gusting to 24 mph
Visibility 10 mi.
Sky condition
Ceiling unlimited
Sky clear
Temperature 21°F
Dewpoint 6°F
Altimeter 30.39 in.Hg
Pressure change last 3 hours-0.02 in.Hg
Pressure rising more slowly
Derived measurements
Relative humidity 52%
Wind chill 8°F
Density altitude -3051 ft.
Sea-level pressure 30.40 in.Hg
Remarks
Fully automated report.
Automated weather observing station with precipitation discriminator.
METAR KMVY 210853Z AUTO 35013G21KT 10SM CLR M06/M14 A3039 RMK AO2 SLP293 T10611144 51006

Settings

Location code

InnerDrive.Weather 4.0.6770.0 Release CLR 4.0.30319.42000
Copyright ©2018 Inner Drive Technology. All rights reserved. Portions Copyright ©1986-2018 David Braverman.

Find weather

Site navigation


Skip Navigation Links

Place info

Page info

PayPal - The safer, easier way to pay online!

Return home.

Copyright ©2020 Inner Drive Technology. Purveyors of fine, hand-crafted computer software. Page printed 2020-02-21T09:50:22 UTC.